Time;durP1;ratioP1;P1;durP2;ratioP2;P2;SDS_P1;SDS_P2;PMS_P1;PMS_P2;Temp;Humidity;BMP_temperature;BMP_pressure;BME280_temperature;BME280_humidity;BME280_pressure;Samples;Min_cycle;Max_cycle;Signal;HPM_P1;HPM_P2
2023/07/03 00:00:26;;;;;;;7.87;5.55;;;18.70;53.40;;;;;;898411;155;27563;-74
2023/07/03 00:02:52;;;;;;;8.43;6.20;;;18.70;53.50;;;;;;899935;155;27386;-74
2023/07/03 00:05:19;;;;;;;10.03;6.37;;;18.70;53.60;;;;;;900555;155;27443;-74
2023/07/03 00:07:48;;;;;;;11.35;6.53;;;18.60;53.60;;;;;;898561;155;27483;-74
2023/07/03 00:10:12;;;;;;;8.55;6.03;;;18.60;53.70;;;;;;898616;155;27483;-74
2023/07/03 00:12:39;;;;;;;8.95;6.20;;;18.60;53.80;;;;;;898718;155;27363;-74
2023/07/03 00:15:05;;;;;;;10.48;6.33;;;18.50;53.90;;;;;;897455;155;27370;-74
2023/07/03 00:17:32;;;;;;;9.75;6.35;;;18.40;54.00;;;;;;898214;155;27766;-74
2023/07/03 00:19:58;;;;;;;11.85;6.90;;;18.40;54.10;;;;;;898492;155;27414;-74
2023/07/03 00:22:25;;;;;;;10.28;5.90;;;18.40;54.10;;;;;;899553;155;27388;-74
2023/07/03 00:24:52;;;;;;;9.53;6.45;;;18.40;54.20;;;;;;897737;157;27477;-74
2023/07/03 00:27:18;;;;;;;7.33;5.75;;;18.40;54.40;;;;;;897076;155;27380;-74
2023/07/03 00:29:45;;;;;;;9.95;6.30;;;18.30;54.40;;;;;;898511;155;27533;-74
2023/07/03 00:32:11;;;;;;;10.95;6.62;;;18.30;54.50;;;;;;898961;155;27462;-74
2023/07/03 00:34:38;;;;;;;11.75;6.20;;;18.30;54.60;;;;;;901089;155;27394;-74
2023/07/03 00:37:05;;;;;;;11.57;6.78;;;18.30;54.70;;;;;;898106;155;27445;-74
2023/07/03 00:39:31;;;;;;;10.93;6.00;;;18.30;54.80;;;;;;898165;155;27408;-74
2023/07/03 00:41:58;;;;;;;11.08;6.37;;;18.30;54.80;;;;;;896772;157;27467;-74
2023/07/03 00:44:24;;;;;;;10.80;6.37;;;18.30;54.90;;;;;;899431;155;27409;-74
2023/07/03 00:46:51;;;;;;;11.90;6.80;;;18.30;55.00;;;;;;900321;155;27365;-74
2023/07/03 00:49:18;;;;;;;10.38;6.28;;;18.20;55.00;;;;;;897273;155;27456;-74
2023/07/03 00:51:44;;;;;;;11.25;6.40;;;18.30;55.10;;;;;;897503;155;27418;-74
2023/07/03 00:54:11;;;;;;;7.60;5.65;;;18.30;55.20;;;;;;899422;155;27339;-74
2023/07/03 00:56:37;;;;;;;10.23;6.45;;;18.30;55.30;;;;;;899316;155;27525;-74
2023/07/03 00:59:04;;;;;;;10.05;5.92;;;18.30;55.30;;;;;;900337;156;27369;-74
2023/07/03 01:01:43;;;;;;;11.35;6.37;;;18.30;55.30;;;;;;898639;155;27469;-74
2023/07/03 01:04:09;;;;;;;9.68;6.12;;;18.30;55.40;;;;;;898853;155;27398;-74
2023/07/03 01:06:39;;;;;;;12.23;7.33;;;18.30;55.50;;;;;;899217;155;27558;-74
2023/07/03 01:09:06;;;;;;;9.40;6.42;;;18.30;55.60;;;;;;897660;157;27431;-74
2023/07/03 01:11:32;;;;;;;8.95;6.60;;;18.20;55.50;;;;;;897737;155;27399;-74
2023/07/03 01:13:58;;;;;;;10.45;6.40;;;18.30;55.60;;;;;;897219;155;27514;-74
2023/07/03 01:16:25;;;;;;;7.50;5.72;;;18.30;55.70;;;;;;898276;155;27468;-74
2023/07/03 01:18:53;;;;;;;10.25;6.40;;;18.30;55.80;;;;;;899868;155;27355;-74
2023/07/03 01:21:18;;;;;;;8.13;6.17;;;18.30;55.90;;;;;;898907;155;27387;-74
2023/07/03 01:23:45;;;;;;;8.98;6.80;;;18.30;56.00;;;;;;868976;161;27488;-74
2023/07/03 01:26:11;;;;;;;11.05;6.70;;;18.40;56.10;;;;;;898736;155;27354;-74
2023/07/03 01:28:38;;;;;;;9.93;6.80;;;18.40;56.10;;;;;;898461;157;27388;-74
2023/07/03 01:31:07;;;;;;;10.05;6.72;;;18.40;56.10;;;;;;899846;155;27295;-74
2023/07/03 01:33:31;;;;;;;9.55;6.37;;;18.50;56.10;;;;;;899572;155;27841;-74
2023/07/03 01:35:58;;;;;;;13.15;6.83;;;18.60;56.10;;;;;;898206;155;27494;-74
2023/07/03 01:38:24;;;;;;;9.50;6.20;;;18.60;56.10;;;;;;900901;155;27394;-74
2023/07/03 01:40:51;;;;;;;9.50;6.40;;;18.70;56.10;;;;;;897969;155;27482;-74
2023/07/03 01:43:17;;;;;;;11.40;7.40;;;18.70;56.10;;;;;;898441;155;27422;-74
2023/07/03 01:45:44;;;;;;;11.80;7.55;;;18.80;56.10;;;;;;896778;155;27486;-74
2023/07/03 01:48:11;;;;;;;10.15;6.60;;;18.80;56.10;;;;;;899727;155;27316;-74
2023/07/03 01:50:37;;;;;;;8.48;6.62;;;18.90;56.10;;;;;;898621;155;27486;-74
2023/07/03 01:53:07;;;;;;;9.75;6.37;;;18.90;56.00;;;;;;898454;155;27354;-74
2023/07/03 01:55:43;;;;;;;11.85;6.67;;;19.00;56.00;;;;;;898383;155;27417;-74
2023/07/03 01:58:21;;;;;;;10.65;6.42;;;19.00;56.00;;;;;;898866;155;27390;-74
2023/07/03 02:00:48;;;;;;;8.05;5.87;;;19.10;56.00;;;;;;898144;155;27407;-74
2023/07/03 02:03:35;;;;;;;11.25;7.12;;;19.10;56.00;;;;;;899044;155;27359;-74
2023/07/03 02:06:02;;;;;;;10.95;6.50;;;19.20;56.10;;;;;;897329;155;27494;-74
2023/07/03 02:08:28;;;;;;;10.60;6.62;;;19.20;55.90;;;;;;896784;155;27510;-74
2023/07/03 02:10:55;;;;;;;12.20;7.40;;;19.20;55.90;;;;;;897457;155;27317;-74
2023/07/03 02:13:21;;;;;;;8.83;6.95;;;19.30;56.00;;;;;;898003;155;27459;-74
2023/07/03 02:15:48;;;;;;;9.63;6.78;;;19.30;55.90;;;;;;896884;155;27398;-74
2023/07/03 02:18:17;;;;;;;9.73;7.00;;;19.40;56.00;;;;;;897825;155;27412;-74
2023/07/03 02:20:41;;;;;;;11.22;6.90;;;19.40;56.00;;;;;;899367;155;27538;-74
2023/07/03 02:23:08;;;;;;;11.97;7.00;;;19.40;55.90;;;;;;898794;155;27471;-74
2023/07/03 02:25:34;;;;;;;10.82;6.15;;;19.50;56.00;;;;;;898861;158;27404;-74
2023/07/03 02:28:01;;;;;;;9.00;6.60;;;19.50;56.00;;;;;;898317;155;27748;-74
2023/07/03 02:30:27;;;;;;;11.97;7.72;;;19.50;55.90;;;;;;897723;158;27509;-74
2023/07/03 02:32:54;;;;;;;11.43;5.97;;;19.50;55.90;;;;;;899046;155;27361;-74
2023/07/03 02:35:21;;;;;;;9.73;7.08;;;19.60;55.90;;;;;;899936;155;27851;-74
2023/07/03 02:37:48;;;;;;;9.35;6.47;;;19.60;55.90;;;;;;898699;157;27928;-74
2023/07/03 02:40:14;;;;;;;9.10;6.70;;;19.60;55.90;;;;;;898744;155;27463;-74
2023/07/03 02:42:40;;;;;;;10.18;6.67;;;19.60;56.30;;;;;;897849;157;27492;-74
2023/07/03 02:45:07;;;;;;;10.63;7.12;;;19.60;55.80;;;;;;898261;155;27400;-74
2023/07/03 02:47:34;;;;;;;8.68;6.25;;;19.70;55.90;;;;;;899331;155;27385;-74
2023/07/03 02:50:00;;;;;;;8.20;7.10;;;19.70;55.90;;;;;;900096;155;27445;-74
2023/07/03 02:52:27;;;;;;;15.28;7.00;;;19.70;55.90;;;;;;899906;155;27484;-74
2023/07/03 02:54:53;;;;;;;13.72;6.90;;;19.70;55.90;;;;;;898611;156;27481;-74
2023/07/03 02:57:20;;;;;;;10.80;6.62;;;19.70;55.90;;;;;;898451;155;27403;-74
2023/07/03 02:59:47;;;;;;;8.13;6.53;;;19.70;55.90;;;;;;898410;155;27711;-74
2023/07/03 03:02:13;;;;;;;9.20;7.50;;;19.80;56.00;;;;;;899860;155;27409;-74
2023/07/03 03:04:40;;;;;;;10.95;7.00;;;19.80;56.00;;;;;;897705;157;27840;-74
2023/07/03 03:07:06;;;;;;;12.58;7.33;;;19.80;56.00;;;;;;899294;157;27396;-74
2023/07/03 03:09:33;;;;;;;9.10;6.62;;;19.80;56.00;;;;;;899416;155;27490;-74
2023/07/03 03:12:00;;;;;;;9.65;7.03;;;19.80;56.00;;;;;;898548;155;27457;-74
2023/07/03 03:14:26;;;;;;;10.95;6.65;;;19.70;56.00;;;;;;897735;155;27487;-74
2023/07/03 03:16:53;;;;;;;11.68;6.83;;;19.80;56.00;;;;;;897459;155;27404;-74
2023/07/03 03:19:19;;;;;;;9.48;6.45;;;19.80;56.10;;;;;;899440;155;27469;-74
2023/07/03 03:21:49;;;;;;;12.60;7.10;;;19.80;56.10;;;;;;898744;157;27963;-74
2023/07/03 03:24:12;;;;;;;10.60;7.42;;;19.80;56.10;;;;;;898557;157;27377;-74
2023/07/03 03:26:39;;;;;;;9.75;6.60;;;19.80;56.10;;;;;;897301;155;27525;-74
2023/07/03 03:29:06;;;;;;;11.40;6.67;;;19.80;56.10;;;;;;898561;155;27356;-74
2023/07/03 03:31:32;;;;;;;9.48;7.33;;;19.80;56.20;;;;;;898561;155;27367;-74
2023/07/03 03:33:59;;;;;;;10.90;7.47;;;19.80;55.90;;;;;;898659;155;27517;-74
2023/07/03 03:36:25;;;;;;;10.03;6.65;;;19.80;56.20;;;;;;898833;155;27395;-74
2023/07/03 03:38:52;;;;;;;11.60;6.87;;;19.80;56.20;;;;;;899773;157;27384;-74
2023/07/03 03:41:19;;;;;;;11.10;7.28;;;19.80;56.20;;;;;;900833;155;27367;-74
2023/07/03 03:43:48;;;;;;;10.28;6.53;;;19.80;56.20;;;;;;897738;155;27417;-74
2023/07/03 03:46:15;;;;;;;9.65;6.80;;;19.80;56.20;;;;;;898536;155;27414;-74
2023/07/03 03:48:41;;;;;;;10.68;7.00;;;19.80;56.20;;;;;;899183;158;27420;-74
2023/07/03 03:51:09;;;;;;;10.38;6.30;;;19.90;56.30;;;;;;898440;155;27492;-75
2023/07/03 03:53:34;;;;;;;10.40;7.30;;;19.80;56.30;;;;;;898859;157;27439;-74
2023/07/03 03:56:01;;;;;;;8.68;6.10;;;19.80;56.30;;;;;;899657;155;27419;-74
2023/07/03 03:58:28;;;;;;;10.28;6.60;;;19.90;56.30;;;;;;899919;155;28050;-74
2023/07/03 04:00:54;;;;;;;10.55;6.40;;;19.90;56.30;;;;;;898299;155;27413;-74
2023/07/03 04:03:21;;;;;;;9.73;6.47;;;19.90;56.30;;;;;;896882;155;27493;-74
2023/07/03 04:05:47;;;;;;;9.35;6.33;;;19.90;56.30;;;;;;898537;155;27410;-74
2023/07/03 04:08:14;;;;;;;9.45;6.03;;;19.90;56.30;;;;;;898786;154;27406;-74
2023/07/03 04:10:44;;;;;;;9.80;6.35;;;19.90;56.30;;;;;;899133;155;27479;-74
2023/07/03 04:13:07;;;;;;;11.57;6.65;;;20.00;56.30;;;;;;896877;155;27472;-74
2023/07/03 04:15:35;;;;;;;8.38;5.78;;;20.00;56.30;;;;;;899321;155;27371;-75
2023/07/03 04:18:00;;;;;;;12.68;6.53;;;20.00;56.30;;;;;;897984;155;27516;-75
2023/07/03 04:20:27;;;;;;;8.10;6.17;;;20.00;56.30;;;;;;900907;155;27512;-74
2023/07/03 04:22:54;;;;;;;9.38;6.70;;;20.00;56.30;;;;;;899272;155;27364;-75
2023/07/03 04:25:20;;;;;;;8.90;5.97;;;20.10;56.30;;;;;;897351;155;27397;-75
2023/07/03 04:27:47;;;;;;;8.98;5.60;;;20.10;56.30;;;;;;899720;155;27351;-75
2023/07/03 04:30:13;;;;;;;6.80;5.58;;;20.10;56.20;;;;;;897101;155;27909;-74
2023/07/03 04:32:40;;;;;;;8.83;5.37;;;20.10;56.20;;;;;;898846;157;27531;-74
2023/07/03 04:35:07;;;;;;;9.15;5.92;;;20.10;56.10;;;;;;899840;155;27406;-74
2023/07/03 04:37:34;;;;;;;8.38;5.30;;;20.20;56.20;;;;;;899840;155;28047;-75
2023/07/03 04:40:00;;;;;;;8.93;5.03;;;20.20;56.20;;;;;;900176;155;27382;-75
2023/07/03 04:42:31;;;;;;;7.40;5.00;;;20.20;56.10;;;;;;899200;155;27520;-75
2023/07/03 04:44:53;;;;;;;9.53;5.80;;;20.20;56.00;;;;;;899398;155;27394;-75
2023/07/03 04:47:19;;;;;;;6.85;5.15;;;20.20;55.90;;;;;;900623;155;27529;-75
2023/07/03 04:49:48;;;;;;;7.22;5.00;;;20.30;55.90;;;;;;899200;155;27476;-74
2023/07/03 04:52:16;;;;;;;8.90;5.37;;;20.30;55.90;;;;;;898372;155;27512;-74
2023/07/03 04:54:39;;;;;;;8.73;5.25;;;20.30;56.00;;;;;;899436;155;27379;-75
2023/07/03 04:57:06;;;;;;;8.15;4.92;;;20.30;56.00;;;;;;894912;155;27568;-75
2023/07/03 04:59:32;;;;;;;7.85;5.47;;;20.30;56.10;;;;;;899115;155;27487;-74
2023/07/03 05:01:59;;;;;;;9.85;5.53;;;20.40;56.00;;;;;;898296;157;27881;-75
2023/07/03 05:04:26;;;;;;;11.35;6.30;;;20.40;56.00;;;;;;898249;155;27404;-75
2023/07/03 05:06:52;;;;;;;9.05;5.00;;;20.40;56.00;;;;;;899669;155;27478;-75
2023/07/03 05:09:19;;;;;;;7.95;5.40;;;20.50;56.00;;;;;;895843;155;27461;-75
2023/07/03 05:11:48;;;;;;;6.35;5.20;;;20.50;55.90;;;;;;899908;155;27409;-75
2023/07/03 05:14:12;;;;;;;7.25;4.78;;;20.50;55.90;;;;;;900016;157;27398;-75
2023/07/03 05:16:39;;;;;;;7.33;5.33;;;20.50;55.90;;;;;;898271;155;27374;-75
2023/07/03 05:19:05;;;;;;;7.87;5.72;;;20.60;55.90;;;;;;900446;155;27388;-75
2023/07/03 05:21:32;;;;;;;7.90;5.03;;;20.60;55.90;;;;;;898270;155;27379;-75
2023/07/03 05:23:58;;;;;;;8.55;5.17;;;20.60;55.90;;;;;;898731;155;27397;-75
2023/07/03 05:26:25;;;;;;;8.20;5.20;;;20.70;56.00;;;;;;899931;155;27380;-75
2023/07/03 05:28:51;;;;;;;9.40;4.75;;;20.70;56.00;;;;;;901034;155;27381;-75
2023/07/03 05:31:22;;;;;;;7.78;5.03;;;20.80;56.00;;;;;;898817;155;27333;-74
2023/07/03 05:33:45;;;;;;;9.35;5.05;;;20.80;55.90;;;;;;898235;155;27524;-75
2023/07/03 05:36:11;;;;;;;9.03;4.67;;;20.90;55.90;;;;;;899704;155;27953;-75
2023/07/03 05:38:38;;;;;;;10.05;4.80;;;21.00;55.80;;;;;;898397;155;27897;-75
2023/07/03 05:41:04;;;;;;;9.03;4.90;;;21.00;55.70;;;;;;900252;155;27311;-75
2023/07/03 05:43:31;;;;;;;6.42;4.47;;;21.10;55.60;;;;;;898466;155;27697;-75
2023/07/03 05:45:58;;;;;;;11.53;4.67;;;21.20;55.70;;;;;;898980;155;27438;-75
2023/07/03 05:48:24;;;;;;;8.33;4.75;;;21.20;55.50;;;;;;896600;155;27838;-75
2023/07/03 05:50:51;;;;;;;8.48;4.55;;;21.30;55.50;;;;;;896508;155;27351;-75
2023/07/03 05:53:17;;;;;;;7.95;4.47;;;21.30;55.40;;;;;;898423;155;27373;-75
2023/07/03 05:55:44;;;;;;;8.25;4.25;;;21.40;55.30;;;;;;896046;155;27532;-75
2023/07/03 05:58:11;;;;;;;6.35;4.33;;;21.40;55.20;;;;;;898084;155;27427;-75
2023/07/03 06:00:37;;;;;;;10.90;5.28;;;21.50;55.20;;;;;;898332;155;27551;-75
2023/07/03 06:03:04;;;;;;;6.83;4.00;;;21.50;55.10;;;;;;897808;155;27410;-75
2023/07/03 06:05:30;;;;;;;6.33;3.58;;;21.60;55.00;;;;;;898779;154;27452;-75
2023/07/03 06:07:57;;;;;;;6.15;3.45;;;21.80;55.40;;;;;;899869;155;27394;-75
2023/07/03 06:10:23;;;;;;;6.58;3.55;;;21.90;54.60;;;;;;899328;155;27406;-75
2023/07/03 06:12:50;;;;;;;6.25;3.37;;;22.00;54.50;;;;;;897087;155;27855;-75
2023/07/03 06:15:17;;;;;;;7.45;3.67;;;22.10;54.50;;;;;;897940;155;27515;-75
2023/07/03 06:17:44;;;;;;;7.30;3.45;;;22.20;54.30;;;;;;897950;155;27455;-75
2023/07/03 06:20:10;;;;;;;6.87;3.08;;;22.30;54.10;;;;;;898257;155;27433;-75
2023/07/03 06:22:36;;;;;;;7.05;3.40;;;22.40;53.80;;;;;;897306;155;27489;-74
2023/07/03 06:25:03;;;;;;;9.00;3.47;;;22.40;53.50;;;;;;899022;155;27461;-74
2023/07/03 06:27:30;;;;;;;5.67;3.22;;;22.50;53.30;;;;;;898282;155;27359;-75
2023/07/03 06:29:56;;;;;;;5.75;3.37;;;22.60;53.10;;;;;;898859;157;27557;-74
2023/07/03 06:32:23;;;;;;;8.45;3.05;;;22.60;53.00;;;;;;899187;155;27535;-74
2023/07/03 06:34:49;;;;;;;7.28;3.33;;;22.70;52.90;;;;;;899452;155;27372;-75
2023/07/03 06:37:16;;;;;;;8.05;3.58;;;22.80;52.80;;;;;;901146;155;27354;-74
2023/07/03 06:39:43;;;;;;;5.72;2.83;;;22.80;52.60;;;;;;898061;155;27488;-74
2023/07/03 06:42:10;;;;;;;6.10;3.15;;;22.90;52.50;;;;;;899198;155;27405;-75
2023/07/03 06:44:36;;;;;;;5.47;3.27;;;22.90;52.40;;;;;;899185;155;27468;-75
2023/07/03 06:47:02;;;;;;;5.72;3.58;;;22.90;52.50;;;;;;899108;155;27422;-74
2023/07/03 06:49:29;;;;;;;7.28;2.95;;;23.00;52.40;;;;;;899332;157;27433;-74
2023/07/03 06:51:56;;;;;;;8.50;4.37;;;23.00;52.30;;;;;;900356;155;27414;-74
2023/07/03 06:54:22;;;;;;;5.47;3.75;;;23.00;52.20;;;;;;899692;155;27381;-75
2023/07/03 06:56:49;;;;;;;6.90;3.40;;;23.10;52.10;;;;;;900623;155;27471;-74
2023/07/03 06:59:16;;;;;;;9.93;4.30;;;23.20;52.10;;;;;;899418;155;27293;-74
2023/07/03 07:01:42;;;;;;;8.95;4.30;;;23.20;52.10;;;;;;899231;155;27428;-74
2023/07/03 07:04:09;;;;;;;4.97;3.05;;;23.30;52.20;;;;;;899435;155;27497;-74
2023/07/03 07:06:35;;;;;;;8.15;3.87;;;23.40;52.20;;;;;;896880;155;27377;-74
2023/07/03 07:09:03;;;;;;;7.85;3.37;;;23.60;52.10;;;;;;897248;155;27299;-74
2023/07/03 07:11:28;;;;;;;6.83;3.22;;;23.70;52.00;;;;;;899525;155;27379;-74
2023/07/03 07:13:55;;;;;;;6.17;3.27;;;23.90;51.90;;;;;;900631;157;27392;-75
2023/07/03 07:16:21;;;;;;;6.45;2.87;;;24.10;51.80;;;;;;897816;155;27435;-74
2023/07/03 07:18:48;;;;;;;6.97;3.17;;;24.30;51.70;;;;;;898091;155;27439;-75
2023/07/03 07:21:15;;;;;;;5.10;3.00;;;24.60;51.60;;;;;;896614;155;27397;-75
2023/07/03 07:23:41;;;;;;;5.65;3.10;;;24.90;51.90;;;;;;898988;155;27436;-75
2023/07/03 07:26:08;;;;;;;5.03;3.05;;;25.40;51.90;;;;;;898991;155;27419;-75
2023/07/03 07:28:34;;;;;;;5.15;2.95;;;26.00;52.00;;;;;;897742;155;27328;-75
2023/07/03 07:31:01;;;;;;;5.67;3.40;;;26.70;52.30;;;;;;899820;155;27374;-75
2023/07/03 07:33:28;;;;;;;6.17;3.08;;;27.60;52.20;;;;;;897219;155;27401;-75
2023/07/03 07:35:54;;;;;;;4.42;3.15;;;28.50;51.70;;;;;;899320;155;27492;-75
2023/07/03 07:38:21;;;;;;;4.72;2.83;;;29.50;50.60;;;;;;897823;155;27343;-75
2023/07/03 07:40:48;;;;;;;5.87;2.95;;;30.40;49.30;;;;;;899688;155;26273;-75
2023/07/03 07:43:14;;;;;;;6.47;3.55;;;31.20;48.40;;;;;;899372;155;27395;-75
2023/07/03 07:45:40;;;;;;;5.65;3.58;;;32.00;47.00;;;;;;899732;155;26308;-75
2023/07/03 07:48:07;;;;;;;5.47;2.95;;;32.50;45.30;;;;;;896156;155;27513;-75
2023/07/03 07:50:34;;;;;;;4.33;3.22;;;32.90;44.20;;;;;;898645;155;27384;-75
2023/07/03 07:53:00;;;;;;;5.50;2.98;;;33.10;43.30;;;;;;898438;155;27372;-75
2023/07/03 07:55:27;;;;;;;4.58;2.92;;;33.10;42.40;;;;;;898980;155;27432;-75
2023/07/03 07:57:53;;;;;;;7.28;3.20;;;33.10;41.90;;;;;;899145;155;27506;-75
2023/07/03 08:00:20;;;;;;;7.58;2.98;;;33.10;41.30;;;;;;900982;155;27299;-75
2023/07/03 08:02:47;;;;;;;5.35;2.87;;;33.10;41.40;;;;;;900267;155;27378;-75
2023/07/03 08:05:13;;;;;;;13.10;2.98;;;33.30;41.80;;;;;;899773;155;27391;-75
2023/07/03 08:07:40;;;;;;;5.55;3.02;;;33.60;42.00;;;;;;897251;155;26719;-75
2023/07/03 08:10:06;;;;;;;4.95;3.00;;;34.00;42.10;;;;;;899408;154;27800;-75
2023/07/03 08:12:33;;;;;;;5.12;2.83;;;34.60;42.00;;;;;;899573;155;26308;-75
2023/07/03 08:15:00;;;;;;;5.25;2.60;;;35.20;41.60;;;;;;897191;155;26233;-75
2023/07/03 08:17:26;;;;;;;3.98;2.50;;;35.90;40.80;;;;;;900919;155;26309;-75
2023/07/03 08:19:53;;;;;;;4.78;2.42;;;36.50;40.20;;;;;;898996;155;26300;-75
2023/07/03 08:22:19;;;;;;;6.12;2.70;;;37.20;39.60;;;;;;899874;155;26377;-75
2023/07/03 08:24:46;;;;;;;5.37;2.27;;;37.80;38.70;;;;;;899352;155;26304;-74
2023/07/03 08:27:12;;;;;;;3.65;2.40;;;38.40;38.10;;;;;;900056;155;26206;-74
2023/07/03 08:29:39;;;;;;;5.15;2.52;;;39.00;37.50;;;;;;899477;155;26386;-73
2023/07/03 08:32:10;;;;;;;3.90;2.80;;;39.50;37.10;;;;;;879866;158;26292;-74
2023/07/03 08:34:36;;;;;;;3.40;2.27;;;40.00;35.80;;;;;;871080;160;27952;-74
2023/07/03 08:37:03;;;;;;;5.35;2.70;;;40.20;34.20;;;;;;869999;160;26394;-73
2023/07/03 08:39:29;;;;;;;5.92;2.33;;;40.20;33.70;;;;;;869759;160;26339;-73
2023/07/03 08:41:56;;;;;;;5.60;2.70;;;40.00;33.10;;;;;;871348;161;26322;-73
2023/07/03 08:44:23;;;;;;;4.50;2.45;;;39.90;32.60;;;;;;869413;159;26329;-73
2023/07/03 08:46:49;;;;;;;5.05;3.12;;;39.80;32.90;;;;;;868488;160;26713;-73
2023/07/03 08:49:16;;;;;;;6.08;2.90;;;39.80;33.00;;;;;;869363;161;26405;-74
2023/07/03 08:51:42;;;;;;;4.22;2.60;;;39.90;33.00;;;;;;868118;161;26337;-74
2023/07/03 08:54:12;;;;;;;4.33;2.50;;;40.10;32.80;;;;;;869743;161;26364;-74
2023/07/03 08:56:39;;;;;;;3.05;2.27;;;40.30;32.20;;;;;;869282;161;26444;-74
2023/07/03 08:59:06;;;;;;;5.25;2.58;;;40.50;31.60;;;;;;870539;162;26310;-74
2023/07/03 09:01:47;;;;;;;3.40;2.10;;;40.50;31.50;;;;;;870144;160;26401;-74
2023/07/03 09:04:38;;;;;;;3.17;2.20;;;40.70;31.40;;;;;;870510;161;26308;-74
2023/07/03 09:07:17;;;;;;;3.58;2.00;;;40.70;30.60;;;;;;869428;161;26400;-74
2023/07/03 09:09:43;;;;;;;3.87;2.30;;;40.50;30.00;;;;;;867222;160;27513;-74
2023/07/03 09:12:22;;;;;;;8.45;2.52;;;40.10;29.60;;;;;;869001;160;26417;-74
2023/07/03 09:14:54;;;;;;;3.90;2.33;;;39.50;29.30;;;;;;850775;163;26412;-74
2023/07/03 09:17:21;;;;;;;4.55;2.47;;;38.80;29.60;;;;;;871902;160;26306;-74
2023/07/03 09:19:48;;;;;;;4.17;2.25;;;38.10;29.50;;;;;;869221;160;26413;-74
2023/07/03 09:22:17;;;;;;;3.95;2.10;;;37.50;29.60;;;;;;869784;161;26487;-74
2023/07/03 09:24:43;;;;;;;4.95;2.40;;;36.90;29.80;;;;;;869149;162;27396;-73
2023/07/03 09:27:10;;;;;;;3.22;2.17;;;36.20;30.00;;;;;;870855;161;27537;-74
2023/07/03 09:29:37;;;;;;;4.60;2.20;;;35.80;30.30;;;;;;870156;159;26325;-73
2023/07/03 09:32:03;;;;;;;2.75;2.00;;;35.40;31.00;;;;;;870557;161;27782;-74
2023/07/03 09:34:30;;;;;;;2.37;2.00;;;35.20;31.70;;;;;;869313;160;26350;-74
2023/07/03 09:36:59;;;;;;;3.67;2.42;;;35.20;32.80;;;;;;865809;161;26386;-73
2023/07/03 09:39:23;;;;;;;5.70;2.42;;;35.30;31.30;;;;;;870533;160;26342;-74
2023/07/03 09:41:50;;;;;;;4.80;2.25;;;35.40;31.80;;;;;;870547;161;26342;-74
2023/07/03 09:44:17;;;;;;;4.03;2.08;;;35.50;31.80;;;;;;870204;160;26373;-74
2023/07/03 09:46:43;;;;;;;2.77;1.95;;;35.80;32.20;;;;;;870855;161;26269;-74
2023/07/03 09:49:15;;;;;;;2.67;2.10;;;36.00;31.90;;;;;;869046;160;26406;-74
2023/07/03 09:51:41;;;;;;;3.42;2.25;;;36.30;31.30;;;;;;869980;160;26409;-74
2023/07/03 09:54:08;;;;;;;6.00;2.83;;;36.30;31.10;;;;;;869812;161;26417;-74
2023/07/03 09:56:35;;;;;;;3.02;2.00;;;36.30;30.80;;;;;;868771;160;26290;-74
2023/07/03 09:59:01;;;;;;;6.25;2.80;;;36.20;30.80;;;;;;868865;160;26482;-74
2023/07/03 10:01:28;;;;;;;3.25;2.92;;;36.00;30.50;;;;;;867908;158;27472;-74
2023/07/03 10:04:03;;;;;;;3.30;2.52;;;35.80;30.40;;;;;;869312;160;26401;-74
2023/07/03 10:06:30;;;;;;;3.47;2.67;;;35.50;30.30;;;;;;871372;160;27481;-74
2023/07/03 10:08:56;;;;;;;4.67;2.75;;;35.30;30.40;;;;;;866323;160;26336;-74
2023/07/03 10:11:23;;;;;;;5.90;2.08;;;35.10;30.70;;;;;;877895;159;27436;-74
2023/07/03 10:13:51;;;;;;;3.47;2.20;;;34.80;30.80;;;;;;869643;160;27484;-74
2023/07/03 10:16:16;;;;;;;4.87;2.25;;;34.70;30.90;;;;;;869209;160;27371;-74
2023/07/03 10:18:44;;;;;;;3.30;2.37;;;34.50;30.90;;;;;;869262;160;27341;-74
2023/07/03 10:21:10;;;;;;;2.85;2.08;;;34.20;30.70;;;;;;868641;160;27418;-74
2023/07/03 10:23:37;;;;;;;4.20;1.90;;;33.90;30.80;;;;;;870148;160;27556;-74
2023/07/03 10:26:05;;;;;;;3.55;2.08;;;33.70;30.80;;;;;;870118;159;27400;-74
2023/07/03 10:28:45;;;;;;;3.27;1.90;;;33.50;31.00;;;;;;869887;160;27402;-74
2023/07/03 10:31:10;;;;;;;7.35;2.42;;;33.20;31.20;;;;;;869725;160;27422;-74
2023/07/03 10:33:37;;;;;;;3.33;2.35;;;33.00;31.40;;;;;;869126;160;27507;-73
2023/07/03 10:36:03;;;;;;;4.30;1.90;;;32.80;31.40;;;;;;864756;160;27407;-74
2023/07/03 10:38:39;;;;;;;4.05;2.55;;;32.50;31.30;;;;;;867907;159;26299;-74
2023/07/03 10:41:07;;;;;;;3.87;2.10;;;32.30;31.60;;;;;;870366;161;27530;-75
2023/07/03 10:43:32;;;;;;;4.00;2.20;;;31.90;31.40;;;;;;868833;160;27475;-75
2023/07/03 10:45:59;;;;;;;3.47;2.20;;;31.50;31.60;;;;;;869473;160;27410;-75
2023/07/03 10:48:26;;;;;;;3.37;2.62;;;31.20;32.00;;;;;;868734;160;27381;-75
2023/07/03 10:51:13;;;;;;;4.40;2.00;;;31.00;32.40;;;;;;868256;162;27447;-71
2023/07/03 10:53:45;;;;;;;2.67;2.00;;;30.70;32.60;;;;;;897886;155;27399;-71
2023/07/03 10:56:30;;;;;;;3.10;2.17;;;30.40;32.70;;;;;;899368;155;27486;-71
2023/07/03 10:59:05;;;;;;;3.87;2.33;;;30.20;33.00;;;;;;898804;155;27486;-71
2023/07/03 11:01:44;;;;;;;2.87;1.95;;;30.00;33.30;;;;;;899047;155;27488;-71
2023/07/03 11:04:44;;;;;;;5.00;2.40;;;29.80;33.80;;;;;;898733;155;27490;-71
2023/07/03 11:07:13;;;;;;;3.35;2.30;;;29.60;33.40;;;;;;897666;155;27486;-71
2023/07/03 11:09:48;;;;;;;2.75;2.30;;;29.50;34.40;;;;;;899168;155;27445;-71
2023/07/03 11:12:24;;;;;;;3.25;2.30;;;29.50;34.60;;;;;;898449;155;27491;-71
2023/07/03 11:15:09;;;;;;;4.80;2.27;;;29.40;34.70;;;;;;897409;155;27388;-71
2023/07/03 11:17:50;;;;;;;2.35;1.72;;;29.30;35.00;;;;;;899351;155;27895;-71
2023/07/03 11:20:23;;;;;;;6.08;1.98;;;29.30;35.30;;;;;;898561;155;27391;-71
2023/07/03 11:22:50;;;;;;;3.72;2.15;;;29.30;35.30;;;;;;898316;155;27397;-71
2023/07/03 11:25:25;;;;;;;3.77;2.30;;;29.30;35.50;;;;;;897871;155;27432;-71
2023/07/03 11:28:00;;;;;;;3.08;2.17;;;29.20;35.50;;;;;;897713;155;27379;-71
2023/07/03 11:30:27;;;;;;;3.95;2.15;;;29.20;35.60;;;;;;899130;155;27370;-71
2023/07/03 11:32:53;;;;;;;2.45;1.90;;;29.20;35.70;;;;;;898828;157;27377;-71
2023/07/03 11:35:20;;;;;;;2.17;1.95;;;29.20;35.70;;;;;;899603;155;27461;-71
2023/07/03 11:37:47;;;;;;;2.70;2.20;;;29.20;35.80;;;;;;897930;155;27521;-71
2023/07/03 11:40:25;;;;;;;2.87;2.10;;;29.20;35.90;;;;;;898593;155;27462;-71
2023/07/03 11:43:10;;;;;;;2.52;2.00;;;29.10;35.90;;;;;;866726;156;27432;-72
2023/07/03 11:45:36;;;;;;;3.42;2.20;;;29.00;35.90;;;;;;899452;154;27534;-71
2023/07/03 11:48:03;;;;;;;3.47;2.12;;;28.90;35.90;;;;;;898927;155;27368;-71
2023/07/03 11:50:29;;;;;;;3.40;2.02;;;28.90;36.00;;;;;;885327;155;27546;-71
2023/07/03 11:52:56;;;;;;;3.52;2.20;;;28.90;36.00;;;;;;880842;158;27455;-72
2023/07/03 11:55:23;;;;;;;3.15;2.17;;;28.70;35.90;;;;;;880043;158;27391;-71
2023/07/03 11:57:49;;;;;;;4.35;2.10;;;28.70;35.90;;;;;;879113;158;27386;-71
2023/07/03 12:00:18;;;;;;;3.20;1.92;;;28.60;36.00;;;;;;880943;158;27321;-71
2023/07/03 12:02:53;;;;;;;2.75;1.85;;;28.60;36.20;;;;;;878125;158;28449;-71
2023/07/03 12:05:45;;;;;;;2.47;1.90;;;28.50;36.20;;;;;;881888;158;27479;-72
2023/07/03 12:08:26;;;;;;;3.30;1.80;;;28.50;36.20;;;;;;883489;158;27372;-71
2023/07/03 12:10:57;;;;;;;2.80;1.65;;;28.50;36.50;;;;;;880713;158;27368;-71
2023/07/03 12:13:28;;;;;;;3.37;1.95;;;28.50;36.30;;;;;;880877;158;27395;-71
2023/07/03 12:15:55;;;;;;;3.35;2.02;;;28.50;36.60;;;;;;877489;158;27420;-71
2023/07/03 12:18:21;;;;;;;2.62;1.98;;;28.50;36.70;;;;;;880808;158;27364;-72
2023/07/03 12:20:48;;;;;;;3.20;2.12;;;28.60;36.80;;;;;;879176;158;27343;-71
2023/07/03 12:23:15;;;;;;;2.77;2.02;;;28.70;36.80;;;;;;879700;158;27383;-71
2023/07/03 12:25:41;;;;;;;4.83;2.47;;;28.80;36.60;;;;;;877043;158;27537;-71
2023/07/03 12:28:08;;;;;;;2.20;2.00;;;28.80;36.40;;;;;;880303;158;27381;-71
2023/07/03 12:30:34;;;;;;;4.15;2.05;;;28.80;36.40;;;;;;878803;158;27420;-71
2023/07/03 12:33:02;;;;;;;3.33;2.00;;;28.90;35.90;;;;;;881839;158;27398;-71
2023/07/03 12:35:27;;;;;;;4.95;2.15;;;28.90;36.40;;;;;;881568;158;27528;-71
2023/07/03 12:37:54;;;;;;;3.05;1.80;;;28.90;36.30;;;;;;880949;158;28084;-71
2023/07/03 12:40:21;;;;;;;2.90;1.80;;;28.80;36.40;;;;;;881207;158;27415;-72
2023/07/03 12:42:47;;;;;;;2.72;2.20;;;28.80;36.70;;;;;;881892;160;27352;-71
2023/07/03 12:45:14;;;;;;;3.02;2.15;;;28.80;37.00;;;;;;880722;158;27356;-71
2023/07/03 12:47:40;;;;;;;2.58;2.20;;;28.80;37.10;;;;;;876704;158;27422;-71